Date,TemperatureHighF,TemperatureAvgF,TemperatureLowF,DewpointHighF,DewpointAvgF,DewpointLowF,HumidityHigh,HumidityAvg,HumidityLow,PressureMaxIn,PressureMinIn,WindSpeedMaxMPH,WindSpeedAvgMPH,GustSpeedMaxMPH,PrecipitationSumIn
2013-6-1,99.7,77.5,58.1,57.5,50.9,42.5,79,45,18,29.82,29.67,5,1,6,0.00
2013-6-2,101.2,79.5,60.3,58.1,53.3,46.9,77,45,19,29.68,29.54,4,1,4,0.00
2013-6-3,95.4,76.7,59.4,60.5,55.4,51.3,80,51,24,29.72,29.60,5,1,5,0.00
2013-6-4,86.0,71.0,58.1,58.1,54.4,50.8,78,58,38,29.82,29.71,7,2,7,0.00
2013-6-5,92.0,71.7,56.2,60.9,55.3,50.4,82,59,34,29.89,29.75,5,1,5,0.00
2013-6-6,97.9,75.7,58.5,63.9,57.2,50.0,78,55,30,29.83,29.70,6,1,6,0.00
2013-6-7,106.2,80.6,61.4,64.1,58.0,51.0,82,52,18,29.77,29.61,7,1,7,0.00
2013-6-8,108.5,87.3,68.0,63.4,59.4,52.3,71,43,18,29.65,29.55,8,1,8,0.00
2013-6-9,83.2,73.1,65.0,58.6,56.1,53.1,70,56,41,29.77,29.62,8,2,8,0.00
2013-6-10,74.9,65.5,58.0,55.7,53.5,52.1,82,66,47,29.87,29.73,7,2,7,0.00
2013-6-11,88.6,71.3,53.8,58.2,53.8,49.1,86,58,31,29.89,29.78,5,1,5,0.00
2013-6-12,90.2,75.4,57.4,56.3,50.7,40.1,83,46,21,29.86,29.78,8,1,8,0.00
2013-6-13,89.3,70.6,54.0,49.5,44.0,29.5,73,43,13,29.98,29.86,7,1,7,0.00
2013-6-14,88.2,70.8,52.6,53.9,44.5,36.3,69,42,18,29.88,29.72,5,1,5,0.00
2013-6-15,92.2,74.9,59.2,52.4,45.5,32.3,65,40,15,29.85,29.72,5,1,5,0.00
2013-6-16,94.9,75.2,56.7,54.3,49.0,38.0,73,44,17,29.94,29.84,6,1,6,0.00
2013-6-17,89.5,73.6,57.4,54.6,51.1,45.1,75,49,24,29.95,29.85,6,1,6,0.00
2013-6-18,79.9,67.7,57.4,53.6,51.0,46.3,82,58,33,29.91,29.80,8,2,8,0.00
2013-6-19,83.2,66.6,53.1,51.3,44.3,30.8,79,50,17,29.95,29.87,8,1,8,0.00
2013-6-20,88.2,69.2,50.8,50.2,43.9,31.5,76,45,16,29.88,29.80,7,1,7,0.00
2013-6-21,91.3,72.2,53.3,50.0,47.2,43.8,76,45,22,29.85,29.78,8,1,8,0.00
2013-6-22,96.8,75.4,56.5,53.1,46.1,28.6,75,42,10,29.81,29.69,8,1,8,0.00
2013-6-23,77.9,69.0,62.6,60.8,55.7,47.8,79,63,49,29.76,29.68,8,2,8,0.00
2013-6-24,68.6,64.3,62.3,61.7,58.8,56.5,87,82,74,29.82,29.69,4,1,4,0.00
2013-6-25,75.8,71.1,68.0,69.4,65.9,62.8,88,84,77,29.90,29.85,5,1,5,0.00
2013-6-26,91.4,75.8,62.3,66.9,62.7,58.7,88,67,40,29.94,29.87,7,1,7,0.00
2013-6-27,98.6,78.8,63.2,67.1,63.0,59.3,88,62,30,29.97,29.88,6,1,8,0.00
2013-6-28,106.7,84.3,65.9,67.7,62.8,54.9,86,55,22,29.91,29.76,7,1,7,0.00
2013-6-29,108.4,88.5,72.9,67.8,61.7,51.9,68,44,17,29.80,29.66,7,1,7,0.00
2013-6-30,108.7,87.4,68.2,66.8,61.7,52.3,81,48,17,29.72,29.61,5,1,5,0.00